Time;durP1;ratioP1;P1;durP2;ratioP2;P2;SDS_P1;SDS_P2;PMS_P1;PMS_P2;Temp;Humidity;BMP_temperature;BMP_pressure;BME280_temperature;BME280_humidity;BME280_pressure;Samples;Min_cycle;Max_cycle;Signal;HPM_P1;HPM_P2
2021/08/22 00:01:28;;;;;;;10.50;6.63;;;20.10;99.90;;;;;;4882116;29;20618;-68
2021/08/22 00:03:56;;;;;;;11.52;6.30;;;20.10;99.90;;;;;;4894867;29;20044;-68
2021/08/22 00:06:23;;;;;;;9.82;6.88;;;20.10;99.90;;;;;;4897761;29;20407;-68
2021/08/22 00:08:50;;;;;;;7.78;6.13;;;20.10;99.90;;;;;;4896722;29;20136;-68
2021/08/22 00:11:18;;;;;;;8.95;6.18;;;20.00;99.90;;;;;;4896473;29;20080;-68
2021/08/22 00:13:45;;;;;;;11.48;6.40;;;20.00;99.90;;;;;;4896108;29;20056;-68
2021/08/22 00:16:12;;;;;;;10.00;7.53;;;20.00;99.90;;;;;;4896034;29;20135;-68
2021/08/22 00:18:40;;;;;;;10.82;7.90;;;19.90;99.90;;;;;;4895416;29;20131;-68
2021/08/22 00:21:07;;;;;;;13.77;8.63;;;19.90;99.90;;;;;;4895500;29;20097;-68
2021/08/22 00:23:34;;;;;;;13.05;8.52;;;19.90;99.90;;;;;;4895446;29;20052;-68
2021/08/22 00:26:02;;;;;;;10.20;7.13;;;19.90;99.90;;;;;;4894364;29;20223;-68
2021/08/22 00:28:29;;;;;;;10.35;7.15;;;19.90;99.90;;;;;;4895308;29;20100;-68
2021/08/22 00:30:57;;;;;;;8.82;7.05;;;19.90;99.90;;;;;;4896736;29;20056;-68
2021/08/22 00:33:24;;;;;;;9.68;7.07;;;19.90;99.90;;;;;;4898333;29;20061;-68
2021/08/22 00:35:51;;;;;;;9.80;7.05;;;20.00;99.90;;;;;;4897598;29;20052;-68
2021/08/22 00:38:19;;;;;;;9.40;6.65;;;20.00;99.90;;;;;;4899366;29;20526;-68
2021/08/22 00:40:49;;;;;;;11.88;7.18;;;20.00;99.90;;;;;;4891859;29;20929;-68
2021/08/22 00:43:17;;;;;;;10.35;6.65;;;20.10;99.90;;;;;;4899236;29;20061;-67
2021/08/22 00:45:44;;;;;;;8.18;6.07;;;20.10;99.90;;;;;;4887454;29;20049;-68
2021/08/22 00:48:12;;;;;;;8.05;6.43;;;20.10;99.90;;;;;;4894671;29;20108;-68
2021/08/22 00:50:40;;;;;;;8.25;6.15;;;20.10;99.90;;;;;;4889608;29;20053;-68
2021/08/22 00:53:07;;;;;;;9.30;6.72;;;20.10;99.90;;;;;;4898846;29;20037;-68
2021/08/22 00:55:35;;;;;;;8.30;6.18;;;20.10;99.90;;;;;;4899195;29;20044;-68
2021/08/22 00:58:04;;;;;;;8.15;6.30;;;20.10;99.90;;;;;;4899331;29;20059;-68
2021/08/22 01:00:32;;;;;;;10.68;6.35;;;20.10;99.90;;;;;;4897728;29;20051;-68
2021/08/22 01:03:29;;;;;;;9.70;6.75;;;20.10;99.90;;;;;;4898450;29;20048;-68
2021/08/22 01:06:12;;;;;;;8.55;6.38;;;20.10;99.90;;;;;;4903029;29;20033;-68
2021/08/22 01:08:41;;;;;;;8.27;6.43;;;20.10;99.90;;;;;;4898164;29;20077;-68
2021/08/22 01:11:19;;;;;;;8.35;5.72;;;20.00;99.90;;;;;;4898894;29;20049;-68
2021/08/22 01:13:53;;;;;;;10.30;7.07;;;20.00;99.90;;;;;;4897439;29;20087;-68
2021/08/22 01:16:22;;;;;;;7.88;6.30;;;19.90;99.90;;;;;;4897976;29;20064;-68
2021/08/22 01:18:52;;;;;;;8.70;6.25;;;19.90;99.90;;;;;;4898104;29;20468;-68
2021/08/22 01:21:21;;;;;;;10.02;6.35;;;19.80;99.90;;;;;;4896565;29;20395;-68
2021/08/22 01:23:55;;;;;;;10.23;7.10;;;19.80;99.90;;;;;;4898209;29;20411;-68
2021/08/22 01:26:29;;;;;;;8.85;6.68;;;19.80;99.90;;;;;;4898793;29;20396;-68
2021/08/22 01:28:59;;;;;;;8.93;6.10;;;19.80;99.90;;;;;;4911393;29;20051;-68
2021/08/22 01:31:29;;;;;;;9.40;6.38;;;19.80;99.90;;;;;;4899227;29;20159;-68
2021/08/22 01:33:59;;;;;;;9.65;6.93;;;19.80;99.90;;;;;;4909615;29;20048;-68
2021/08/22 01:36:28;;;;;;;8.70;6.70;;;19.80;99.90;;;;;;4897470;29;20061;-68
2021/08/22 01:38:55;;;;;;;8.95;6.18;;;19.80;99.90;;;;;;4881471;29;20462;-68
2021/08/22 01:41:24;;;;;;;8.15;6.15;;;19.80;99.90;;;;;;4897538;29;20044;-68
2021/08/22 01:43:53;;;;;;;14.60;6.80;;;19.80;99.90;;;;;;4897226;29;20051;-68
2021/08/22 01:46:27;;;;;;;10.13;6.47;;;19.70;99.90;;;;;;4895792;29;20068;-68
2021/08/22 01:48:56;;;;;;;8.43;6.35;;;19.70;99.90;;;;;;4879927;29;20497;-68
2021/08/22 01:51:28;;;;;;;9.48;6.70;;;19.70;99.90;;;;;;4896497;29;20476;-68
2021/08/22 01:53:59;;;;;;;8.77;6.35;;;19.60;99.90;;;;;;4896983;29;20052;-68
2021/08/22 01:56:28;;;;;;;11.05;7.00;;;19.60;99.90;;;;;;4911845;29;20146;-68
2021/08/22 01:58:57;;;;;;;8.73;6.63;;;19.60;99.90;;;;;;4895258;29;20419;-68
2021/08/22 02:01:24;;;;;;;10.13;6.60;;;19.60;99.90;;;;;;4897916;29;20044;-68
2021/08/22 02:04:09;;;;;;;10.25;6.30;;;19.60;99.90;;;;;;4895567;29;20075;-68
2021/08/22 02:06:57;;;;;;;8.05;6.05;;;19.70;99.90;;;;;;4895502;29;20108;-68
2021/08/22 02:09:39;;;;;;;13.43;6.68;;;19.70;99.90;;;;;;4887910;29;20040;-68
2021/08/22 02:12:14;;;;;;;9.55;6.95;;;19.60;99.90;;;;;;4896280;29;20040;-67
2021/08/22 02:14:48;;;;;;;12.77;7.00;;;19.70;99.90;;;;;;4878639;29;20049;-67
2021/08/22 02:17:19;;;;;;;10.68;7.07;;;19.70;99.90;;;;;;4896797;29;20115;-68
2021/08/22 02:19:47;;;;;;;10.52;7.38;;;19.70;99.90;;;;;;4897938;29;20470;-68
2021/08/22 02:22:15;;;;;;;9.07;6.75;;;19.70;99.90;;;;;;4901926;29;20040;-68
2021/08/22 02:24:42;;;;;;;10.20;7.85;;;19.70;99.90;;;;;;4898680;29;20055;-68
2021/08/22 02:27:10;;;;;;;10.27;7.47;;;19.70;99.90;;;;;;4895914;29;20444;-68
2021/08/22 02:29:51;;;;;;;9.68;6.85;;;19.80;99.90;;;;;;4895561;29;20051;-68
2021/08/22 02:32:18;;;;;;;10.23;7.72;;;19.80;99.90;;;;;;4893684;29;20351;-68
2021/08/22 02:34:45;;;;;;;13.60;8.80;;;19.80;99.90;;;;;;4896736;29;20045;-68
2021/08/22 02:37:14;;;;;;;12.55;8.68;;;19.70;99.90;;;;;;4895625;29;20045;-66
2021/08/22 02:39:41;;;;;;;14.13;9.40;;;19.70;99.90;;;;;;4895201;29;20056;-68
2021/08/22 02:42:08;;;;;;;14.15;9.38;;;19.50;99.90;;;;;;4895155;29;20407;-68
2021/08/22 02:44:36;;;;;;;14.57;8.07;;;19.40;99.90;;;;;;4895673;29;20036;-66
2021/08/22 02:47:03;;;;;;;11.77;7.80;;;19.20;99.90;;;;;;4896063;29;20068;-65
2021/08/22 02:49:31;;;;;;;11.30;7.00;;;19.00;99.90;;;;;;4894379;29;20354;-65
2021/08/22 02:51:58;;;;;;;11.20;6.78;;;18.80;99.90;;;;;;4893478;29;20048;-66
2021/08/22 02:54:25;;;;;;;11.48;6.50;;;18.60;99.90;;;;;;4891028;29;20051;-66
2021/08/22 02:56:52;;;;;;;13.13;5.95;;;18.40;99.90;;;;;;4894323;29;20048;-66
2021/08/22 02:59:20;;;;;;;10.00;6.20;;;18.20;99.90;;;;;;4896187;29;20049;-67
2021/08/22 03:01:47;;;;;;;12.95;5.60;;;18.10;99.90;;;;;;4897108;29;20398;-64
2021/08/22 03:04:15;;;;;;;9.40;5.22;;;18.10;99.90;;;;;;4896154;29;20063;-65
2021/08/22 03:06:42;;;;;;;8.93;4.80;;;18.10;99.90;;;;;;4913032;29;20041;-65
2021/08/22 03:09:09;;;;;;;10.63;4.72;;;18.00;99.90;;;;;;4900114;29;20058;-67
2021/08/22 03:11:37;;;;;;;9.00;4.57;;;17.80;99.90;;;;;;4895320;29;20051;-67
2021/08/22 03:14:05;;;;;;;9.20;4.45;;;17.80;99.90;;;;;;4895627;29;20419;-66
2021/08/22 03:16:33;;;;;;;8.88;4.38;;;17.60;99.90;;;;;;4896586;29;20052;-67
2021/08/22 03:19:00;;;;;;;9.23;4.00;;;17.50;99.90;;;;;;4893879;29;20053;-66
2021/08/22 03:21:27;;;;;;;7.50;4.30;;;17.40;99.90;;;;;;4894989;29;20048;-66
2021/08/22 03:23:55;;;;;;;8.75;4.00;;;17.30;99.90;;;;;;4893605;29;20053;-66
2021/08/22 03:26:22;;;;;;;11.63;4.35;;;17.20;99.90;;;;;;4893419;29;20495;-67
2021/08/22 03:28:51;;;;;;;9.35;4.47;;;17.10;99.90;;;;;;4878399;29;20127;-66
2021/08/22 03:31:18;;;;;;;11.30;5.03;;;17.00;99.90;;;;;;4896858;29;20131;-66
2021/08/22 03:33:45;;;;;;;8.10;4.32;;;17.00;99.90;;;;;;4879160;29;20491;-66
2021/08/22 03:36:13;;;;;;;7.55;4.22;;;16.90;99.90;;;;;;4892115;29;20109;-66
2021/08/22 03:38:40;;;;;;;9.25;4.63;;;16.90;99.90;;;;;;4893167;29;20142;-66
2021/08/22 03:41:07;;;;;;;9.60;4.70;;;16.90;99.90;;;;;;4893854;29;20158;-66
2021/08/22 03:43:35;;;;;;;6.13;4.20;;;16.90;99.90;;;;;;4876565;29;20069;-66
2021/08/22 03:46:02;;;;;;;9.70;4.88;;;16.90;99.90;;;;;;4895856;29;20045;-66
2021/08/22 03:48:29;;;;;;;9.10;4.82;;;16.90;99.90;;;;;;4893372;29;20480;-66
2021/08/22 03:50:57;;;;;;;8.52;5.22;;;16.90;99.90;;;;;;4893195;29;20037;-66
2021/08/22 03:53:24;;;;;;;6.82;4.95;;;16.90;99.90;;;;;;4885501;29;20048;-66
2021/08/22 03:55:51;;;;;;;8.38;4.90;;;16.90;99.90;;;;;;4892923;29;20156;-66
2021/08/22 03:58:19;;;;;;;9.35;5.10;;;16.90;99.90;;;;;;4891194;29;20131;-66
2021/08/22 04:00:47;;;;;;;10.18;4.78;;;17.00;99.90;;;;;;4888639;29;21546;-66
2021/08/22 04:03:14;;;;;;;9.07;5.03;;;16.90;99.90;;;;;;4888861;29;20045;-66
2021/08/22 04:05:54;;;;;;;12.00;5.90;;;16.90;99.90;;;;;;4899333;29;20119;-66
2021/08/22 04:08:24;;;;;;;9.10;5.78;;;16.80;99.90;;;;;;4881071;29;20511;-66
2021/08/22 04:10:52;;;;;;;9.40;4.90;;;16.90;99.90;;;;;;4886822;29;20059;-66
2021/08/22 04:13:20;;;;;;;9.57;5.53;;;16.90;99.90;;;;;;4896686;29;20053;-66
2021/08/22 04:15:47;;;;;;;10.20;5.82;;;16.90;99.90;;;;;;4888495;29;20052;-66
2021/08/22 04:18:17;;;;;;;9.32;5.50;;;16.90;99.90;;;;;;4890640;29;20049;-66
2021/08/22 04:20:45;;;;;;;9.65;6.05;;;17.00;99.90;;;;;;4896054;29;20044;-66
2021/08/22 04:23:12;;;;;;;9.63;5.45;;;17.00;99.90;;;;;;4896103;29;20063;-66
2021/08/22 04:25:42;;;;;;;9.50;5.63;;;17.00;99.90;;;;;;4893493;29;20159;-66
2021/08/22 04:28:09;;;;;;;10.63;6.03;;;17.10;99.90;;;;;;4885061;29;20071;-66
2021/08/22 04:30:37;;;;;;;10.82;6.05;;;17.10;99.90;;;;;;4882766;29;20092;-66
2021/08/22 04:33:04;;;;;;;11.15;6.47;;;17.10;99.90;;;;;;4885253;29;20418;-66
2021/08/22 04:35:31;;;;;;;9.40;6.03;;;17.20;99.90;;;;;;4892241;29;20037;-66
2021/08/22 04:37:59;;;;;;;9.73;6.18;;;17.20;99.90;;;;;;4895744;29;20450;-66
2021/08/22 04:40:26;;;;;;;11.60;6.35;;;17.30;99.90;;;;;;4891182;29;20055;-66
2021/08/22 04:42:53;;;;;;;10.07;5.90;;;17.30;99.90;;;;;;4894118;29;20056;-66
2021/08/22 04:45:21;;;;;;;11.90;6.55;;;17.30;99.90;;;;;;4893632;29;20491;-66
2021/08/22 04:47:49;;;;;;;10.68;5.45;;;17.40;99.90;;;;;;4895079;29;20093;-66
2021/08/22 04:50:16;;;;;;;12.32;6.22;;;17.50;99.90;;;;;;4882657;29;20124;-66
2021/08/22 04:52:44;;;;;;;8.75;5.47;;;17.50;99.90;;;;;;4889458;29;20059;-66
2021/08/22 04:55:11;;;;;;;12.00;5.00;;;17.50;99.90;;;;;;4897147;29;20044;-66
2021/08/22 04:57:38;;;;;;;8.30;5.35;;;17.60;99.90;;;;;;4896985;29;20056;-66
2021/08/22 05:00:06;;;;;;;9.45;5.20;;;17.60;99.90;;;;;;4897025;29;20132;-66
2021/08/22 05:02:34;;;;;;;10.32;4.78;;;17.70;99.90;;;;;;4896861;29;20049;-66
2021/08/22 05:05:01;;;;;;;8.98;5.35;;;17.70;99.90;;;;;;4894211;29;20041;-66
2021/08/22 05:07:29;;;;;;;10.05;5.28;;;17.80;99.90;;;;;;4905596;29;20045;-66
2021/08/22 05:09:56;;;;;;;10.07;4.80;;;17.80;99.90;;;;;;4878570;29;20091;-66
2021/08/22 05:12:23;;;;;;;8.07;4.63;;;17.80;99.90;;;;;;4896819;29;20066;-66
2021/08/22 05:14:51;;;;;;;7.95;4.63;;;17.90;99.90;;;;;;4896938;29;20078;-66
2021/08/22 05:17:18;;;;;;;7.43;4.57;;;18.00;99.90;;;;;;4894514;29;20920;-66
2021/08/22 05:19:45;;;;;;;6.95;4.10;;;18.00;99.90;;;;;;4896269;29;20057;-66
2021/08/22 05:22:12;;;;;;;9.25;4.22;;;18.00;99.90;;;;;;4895994;29;20052;-68
2021/08/22 05:24:40;;;;;;;7.80;4.32;;;18.10;99.90;;;;;;4886887;29;20041;-67
2021/08/22 05:27:07;;;;;;;7.10;4.10;;;18.00;99.90;;;;;;4880819;29;20057;-66
2021/08/22 05:29:34;;;;;;;8.93;4.35;;;18.00;99.90;;;;;;4895036;29;20091;-66
2021/08/22 05:32:04;;;;;;;7.65;4.32;;;18.00;99.90;;;;;;4896351;29;20052;-66
2021/08/22 05:34:31;;;;;;;8.02;4.47;;;18.10;99.90;;;;;;4887422;29;20067;-66
2021/08/22 05:36:58;;;;;;;7.80;4.22;;;18.20;99.90;;;;;;4885349;29;20474;-66
2021/08/22 05:39:26;;;;;;;8.73;4.65;;;18.30;99.90;;;;;;4891848;29;20080;-66
2021/08/22 05:41:54;;;;;;;8.82;4.18;;;18.30;99.90;;;;;;4896220;29;20052;-66
2021/08/22 05:44:21;;;;;;;6.35;4.07;;;18.40;99.90;;;;;;4884539;29;20081;-66
2021/08/22 05:46:48;;;;;;;8.85;4.55;;;18.50;99.90;;;;;;4894456;29;20057;-67
2021/08/22 05:49:16;;;;;;;6.80;3.95;;;18.60;99.90;;;;;;4892675;29;20048;-67
2021/08/22 05:51:45;;;;;;;8.35;4.40;;;18.70;99.90;;;;;;4885025;29;20040;-67
2021/08/22 05:54:12;;;;;;;7.65;4.95;;;18.70;99.90;;;;;;4895916;29;20140;-68
2021/08/22 05:56:39;;;;;;;8.73;4.43;;;18.70;99.90;;;;;;4892772;29;20447;-67
2021/08/22 05:59:07;;;;;;;6.25;3.92;;;18.80;99.90;;;;;;4894974;29;20056;-68
2021/08/22 06:01:36;;;;;;;9.27;5.75;;;18.80;99.90;;;;;;4881532;29;20503;-67
2021/08/22 06:04:03;;;;;;;9.65;5.40;;;18.80;99.90;;;;;;4893995;29;20060;-67
2021/08/22 06:06:30;;;;;;;8.32;4.80;;;18.80;99.90;;;;;;4895696;29;20064;-67
2021/08/22 06:08:57;;;;;;;8.43;4.50;;;18.90;99.90;;;;;;4894719;29;20459;-67
2021/08/22 06:11:25;;;;;;;6.90;4.32;;;18.80;99.90;;;;;;4893756;29;20437;-67
2021/08/22 06:13:53;;;;;;;8.25;4.72;;;18.80;99.90;;;;;;4893987;29;20057;-67
2021/08/22 06:16:21;;;;;;;7.38;4.85;;;18.80;99.90;;;;;;4895470;29;20131;-67
2021/08/22 06:18:48;;;;;;;7.75;4.80;;;18.80;99.90;;;;;;4895924;29;20056;-67
2021/08/22 06:21:15;;;;;;;7.80;4.93;;;18.60;99.90;;;;;;4893306;29;20479;-67
2021/08/22 06:23:43;;;;;;;10.68;5.00;;;18.60;99.90;;;;;;4895360;29;20047;-67
2021/08/22 06:26:10;;;;;;;9.73;5.15;;;18.60;99.90;;;;;;4894033;29;20523;-67
2021/08/22 06:28:37;;;;;;;9.25;5.43;;;18.50;99.90;;;;;;4893729;29;20127;-67
2021/08/22 06:31:04;;;;;;;8.32;5.30;;;18.50;99.90;;;;;;4895650;29;20406;-67
2021/08/22 06:33:32;;;;;;;8.52;4.82;;;18.50;99.90;;;;;;4894082;29;20052;-67
2021/08/22 06:36:01;;;;;;;9.27;5.65;;;18.50;99.90;;;;;;4899855;29;20056;-67
2021/08/22 06:38:29;;;;;;;8.50;5.95;;;18.60;99.90;;;;;;4880955;29;20117;-67
2021/08/22 06:40:56;;;;;;;9.32;5.68;;;18.60;99.90;;;;;;4879282;29;20044;-67
2021/08/22 06:43:24;;;;;;;8.95;5.70;;;18.60;99.90;;;;;;4882122;29;20496;-67
2021/08/22 06:45:51;;;;;;;9.20;5.60;;;18.60;99.90;;;;;;4878563;29;20384;-67
2021/08/22 06:48:19;;;;;;;10.98;5.63;;;18.70;99.90;;;;;;4885594;29;20051;-67
2021/08/22 06:50:47;;;;;;;8.40;5.78;;;18.70;99.90;;;;;;4883959;29;20423;-67
2021/08/22 06:53:16;;;;;;;7.30;5.30;;;18.80;99.90;;;;;;4893216;29;20139;-67
2021/08/22 06:55:44;;;;;;;9.50;6.15;;;18.90;99.90;;;;;;4893292;29;20468;-67
2021/08/22 06:58:11;;;;;;;10.05;5.93;;;19.10;99.90;;;;;;4894530;29;20059;-67
2021/08/22 07:00:38;;;;;;;8.35;5.22;;;19.10;99.90;;;;;;4894002;29;20440;-67
2021/08/22 07:03:08;;;;;;;8.70;4.82;;;19.20;99.90;;;;;;4894587;29;20456;-67
2021/08/22 07:05:35;;;;;;;9.48;5.82;;;19.40;99.90;;;;;;4895053;29;20051;-67
2021/08/22 07:08:03;;;;;;;8.27;5.38;;;19.60;99.90;;;;;;4895869;29;20507;-67
2021/08/22 07:10:31;;;;;;;7.75;4.75;;;19.60;99.90;;;;;;4895358;29;20079;-67
2021/08/22 07:12:58;;;;;;;8.30;5.15;;;19.80;99.90;;;;;;4893607;29;20063;-67
2021/08/22 07:15:25;;;;;;;7.03;4.80;;;19.80;99.90;;;;;;4876405;29;20496;-67
2021/08/22 07:17:55;;;;;;;8.20;4.78;;;19.90;99.90;;;;;;4891057;29;20057;-67
2021/08/22 07:20:22;;;;;;;7.32;4.60;;;19.90;99.90;;;;;;4895220;29;20059;-68
2021/08/22 07:22:49;;;;;;;9.05;4.78;;;20.10;99.90;;;;;;4895041;29;20777;-66
2021/08/22 07:25:18;;;;;;;8.75;4.50;;;20.20;99.90;;;;;;4894656;29;20055;-66
2021/08/22 07:27:45;;;;;;;7.57;4.45;;;20.30;99.90;;;;;;4895289;29;20044;-65
2021/08/22 07:30:13;;;;;;;7.32;4.72;;;20.30;99.90;;;;;;4894821;29;20143;-67
2021/08/22 07:32:41;;;;;;;8.25;4.88;;;20.20;99.90;;;;;;4894931;29;20051;-67
2021/08/22 07:35:08;;;;;;;7.75;4.68;;;20.10;99.90;;;;;;4893463;29;20072;-65
2021/08/22 07:37:36;;;;;;;7.20;4.72;;;20.10;99.90;;;;;;4895665;29;20135;-66
2021/08/22 07:40:04;;;;;;;7.00;3.72;;;20.10;99.90;;;;;;4889645;29;20047;-66
2021/08/22 07:42:31;;;;;;;7.03;4.47;;;20.00;99.90;;;;;;4882716;29;20049;-66
2021/08/22 07:44:59;;;;;;;7.10;4.20;;;20.00;99.90;;;;;;4894940;29;20071;-66
2021/08/22 07:47:27;;;;;;;7.22;4.25;;;20.00;99.90;;;;;;4895930;29;20076;-66
2021/08/22 07:49:55;;;;;;;5.40;3.28;;;20.00;99.90;;;;;;4890634;29;20040;-66
2021/08/22 07:52:24;;;;;;;7.15;3.97;;;20.10;99.90;;;;;;4902981;29;20617;-66
2021/08/22 07:54:51;;;;;;;7.30;3.92;;;20.10;99.90;;;;;;4894288;29;20041;-66
2021/08/22 07:57:19;;;;;;;6.90;3.90;;;20.10;99.90;;;;;;4895121;29;20072;-66
2021/08/22 07:59:46;;;;;;;9.13;4.13;;;20.10;99.90;;;;;;4893877;29;20060;-66
2021/08/22 08:02:13;;;;;;;6.43;3.65;;;19.90;99.90;;;;;;4880355;29;20053;-66
2021/08/22 08:04:41;;;;;;;7.03;3.80;;;20.00;99.90;;;;;;4893092;29;20052;-66
2021/08/22 08:07:08;;;;;;;6.50;3.67;;;20.00;99.90;;;;;;4905227;29;20049;-66
2021/08/22 08:09:36;;;;;;;5.85;3.60;;;20.00;99.90;;;;;;4895538;29;20124;-66
2021/08/22 08:12:03;;;;;;;5.50;3.58;;;20.10;99.90;;;;;;4893188;29;20075;-67
2021/08/22 08:14:31;;;;;;;7.38;4.60;;;20.30;99.90;;;;;;4894656;29;20419;-67
2021/08/22 08:16:58;;;;;;;5.47;3.78;;;20.40;99.90;;;;;;4894617;29;20087;-67
2021/08/22 08:19:25;;;;;;;7.30;3.92;;;20.60;99.90;;;;;;4894515;29;20418;-67
2021/08/22 08:21:52;;;;;;;6.75;4.10;;;20.80;99.90;;;;;;4894421;29;20040;-67
2021/08/22 08:24:20;;;;;;;7.07;3.97;;;21.10;99.90;;;;;;4879805;29;20128;-67
2021/08/22 08:26:47;;;;;;;6.45;3.75;;;21.00;99.90;;;;;;4896049;29;20045;-67
2021/08/22 08:29:14;;;;;;;9.35;4.47;;;20.90;99.90;;;;;;4892466;29;20033;-67
2021/08/22 08:31:41;;;;;;;5.85;3.72;;;20.90;99.90;;;;;;4906010;29;20052;-67
2021/08/22 08:34:09;;;;;;;6.60;3.97;;;20.90;99.90;;;;;;4905875;29;20526;-66
2021/08/22 08:36:36;;;;;;;7.13;4.82;;;21.10;99.90;;;;;;4894545;29;20132;-66
2021/08/22 08:39:03;;;;;;;5.53;3.60;;;21.30;99.90;;;;;;4892983;29;20043;-66
2021/08/22 08:41:31;;;;;;;6.40;3.53;;;21.40;99.90;;;;;;4891554;29;20045;-67
2021/08/22 08:43:58;;;;;;;7.57;4.68;;;21.50;99.90;;;;;;4895348;29;20049;-68
2021/08/22 08:46:41;;;;;;;7.68;4.28;;;21.60;99.90;;;;;;4889637;29;20101;-68
2021/08/22 08:49:32;;;;;;;7.45;3.97;;;21.80;99.90;;;;;;4892269;29;20133;-67
2021/08/22 08:52:14;;;;;;;5.78;3.85;;;21.80;99.90;;;;;;4887803;29;20083;-68
2021/08/22 08:54:41;;;;;;;7.05;4.30;;;21.90;99.90;;;;;;4898685;29;20397;-67
2021/08/22 08:57:09;;;;;;;6.97;3.90;;;22.10;99.90;;;;;;4898256;29;20048;-67
2021/08/22 08:59:39;;;;;;;12.73;7.07;;;22.30;99.90;;;;;;4898623;29;20044;-67
2021/08/22 09:02:06;;;;;;;7.20;3.80;;;22.70;99.90;;;;;;4892274;29;20121;-67
2021/08/22 09:04:39;;;;;;;8.15;4.00;;;23.00;99.90;;;;;;4898760;29;20041;-67
2021/08/22 09:07:46;;;;;;;8.13;3.90;;;22.90;99.90;;;;;;4911065;29;20052;-66
2021/08/22 09:10:35;;;;;;;6.25;4.20;;;22.80;99.90;;;;;;4896288;29;20104;-67
2021/08/22 09:13:44;;;;;;;6.38;4.00;;;22.70;99.90;;;;;;4880589;29;20053;-67
2021/08/22 09:16:53;;;;;;;7.85;4.18;;;22.80;99.90;;;;;;4892924;29;20052;-67
2021/08/22 09:19:44;;;;;;;5.78;4.10;;;22.80;99.90;;;;;;4820781;29;20076;-68
2021/08/22 09:22:36;;;;;;;6.88;4.15;;;23.10;99.90;;;;;;4806524;29;20102;-68
2021/08/22 09:25:40;;;;;;;7.68;4.70;;;23.70;99.90;;;;;;4822356;29;20054;-68
2021/08/22 09:28:55;;;;;;;7.40;4.78;;;23.70;99.90;;;;;;4821614;29;20078;-67
2021/08/22 09:31:56;;;;;;;7.78;5.07;;;23.60;99.90;;;;;;4813896;29;20102;-67
2021/08/22 09:34:41;;;;;;;8.07;4.80;;;23.30;99.90;;;;;;4813948;29;20058;-67
2021/08/22 09:37:12;;;;;;;7.72;4.72;;;23.40;99.90;;;;;;4812818;29;20117;-67
2021/08/22 09:40:16;;;;;;;8.13;5.20;;;23.40;99.90;;;;;;4815963;29;20050;-67
2021/08/22 09:43:11;;;;;;;8.75;6.03;;;23.30;99.90;;;;;;4818148;29;20506;-67
2021/08/22 09:46:15;;;;;;;8.43;5.20;;;22.90;99.90;;;;;;4801900;29;20053;-67
2021/08/22 09:49:22;;;;;;;7.18;5.18;;;22.80;99.90;;;;;;4803126;29;20460;-67
2021/08/22 09:51:57;;;;;;;8.30;5.75;;;22.60;99.90;;;;;;4820554;29;20057;-67
2021/08/22 09:54:43;;;;;;;7.38;5.28;;;22.30;99.90;;;;;;4821633;29;20483;-67
2021/08/22 09:57:39;;;;;;;7.30;5.30;;;22.00;99.90;;;;;;4885004;29;20098;-66
2021/08/22 10:00:30;;;;;;;6.85;4.93;;;21.70;99.90;;;;;;4897167;29;20051;-68
2021/08/22 10:03:07;;;;;;;9.55;5.95;;;21.40;99.90;;;;;;4894917;29;20054;-68
2021/08/22 10:05:53;;;;;;;8.65;5.72;;;21.10;99.90;;;;;;4897436;29;20504;-67
2021/08/22 10:09:02;;;;;;;8.77;6.25;;;21.00;99.90;;;;;;4896670;29;20097;-68
2021/08/22 10:11:35;;;;;;;8.98;6.38;;;21.00;99.90;;;;;;4883544;29;20528;-68
2021/08/22 10:14:02;;;;;;;11.52;7.32;;;21.00;99.90;;;;;;4896843;29;20057;-68
2021/08/22 10:16:39;;;;;;;9.73;6.35;;;21.00;99.90;;;;;;4909585;29;20059;-68
2021/08/22 10:19:10;;;;;;;10.32;6.60;;;21.10;99.90;;;;;;4896460;29;20053;-68
2021/08/22 10:21:37;;;;;;;11.25;6.82;;;21.30;99.90;;;;;;4896380;29;20053;-68
2021/08/22 10:24:29;;;;;;;8.70;6.28;;;21.50;99.90;;;;;;4899115;29;20116;-68
2021/08/22 10:26:57;;;;;;;11.43;6.70;;;21.70;99.90;;;;;;4895037;29;20084;-68
2021/08/22 10:29:29;;;;;;;10.38;6.85;;;21.50;99.90;;;;;;4895305;29;20041;-68
2021/08/22 10:31:58;;;;;;;12.38;6.80;;;21.50;99.90;;;;;;4896105;29;20402;-68
2021/08/22 10:34:26;;;;;;;10.10;7.20;;;21.50;99.90;;;;;;4897144;29;20041;-67
2021/08/22 10:36:55;;;;;;;12.18;9.43;;;21.60;99.90;;;;;;4897053;29;20048;-68
2021/08/22 10:39:25;;;;;;;11.30;8.82;;;21.70;99.90;;;;;;4884888;29;20104;-68
2021/08/22 10:41:53;;;;;;;13.20;9.50;;;21.60;99.90;;;;;;4890755;29;20048;-68
2021/08/22 10:44:36;;;;;;;14.35;8.48;;;21.70;99.90;;;;;;4891796;29;20074;-67
2021/08/22 10:47:33;;;;;;;13.18;9.95;;;22.00;99.90;;;;;;4884248;29;20559;-68
2021/08/22 10:50:01;;;;;;;12.45;8.68;;;22.20;99.90;;;;;;4882043;29;20051;-67
2021/08/22 10:52:32;;;;;;;13.45;8.38;;;22.40;99.90;;;;;;4891813;29;20063;-67
2021/08/22 10:55:06;;;;;;;10.27;7.63;;;22.40;99.90;;;;;;4896656;29;20052;-67
2021/08/22 10:57:45;;;;;;;9.82;7.50;;;22.30;99.90;;;;;;4896927;29;20293;-67
2021/08/22 11:00:22;;;;;;;10.07;7.82;;;22.60;99.90;;;;;;4886402;29;20487;-68
2021/08/22 11:02:51;;;;;;;9.70;7.18;;;22.90;99.90;;;;;;4894056;29;20120;-67
2021/08/22 11:05:29;;;;;;;9.70;6.95;;;22.90;99.90;;;;;;4889686;29;20128;-67
2021/08/22 11:08:10;;;;;;;8.98;6.63;;;22.80;99.90;;;;;;4904491;29;20421;-67
2021/08/22 11:10:38;;;;;;;8.90;6.70;;;22.50;99.90;;;;;;4890191;29;20037;-67
2021/08/22 11:13:06;;;;;;;10.10;6.60;;;22.00;99.90;;;;;;4893485;29;20079;-67
2021/08/22 11:15:33;;;;;;;9.55;6.60;;;21.90;99.90;;;;;;4886651;29;20071;-68
2021/08/22 11:18:01;;;;;;;9.82;6.97;;;21.90;99.90;;;;;;4892382;29;20056;-68
2021/08/22 11:20:30;;;;;;;9.35;7.20;;;22.00;99.90;;;;;;4894314;29;20048;-67
2021/08/22 11:23:06;;;;;;;9.82;7.07;;;21.70;99.90;;;;;;4885931;29;20079;-67
2021/08/22 11:25:35;;;;;;;10.38;6.45;;;21.50;99.90;;;;;;4899063;29;20044;-67
2021/08/22 11:28:11;;;;;;;10.15;6.63;;;21.50;99.90;;;;;;4887276;29;20056;-67
2021/08/22 11:30:40;;;;;;;11.85;7.22;;;21.60;99.90;;;;;;4895073;29;20044;-67
2021/08/22 11:33:09;;;;;;;8.80;6.43;;;21.70;99.90;;;;;;4895896;29;20065;-67
2021/08/22 11:35:47;;;;;;;10.43;6.47;;;22.00;99.90;;;;;;4878009;29;20411;-67
2021/08/22 11:38:16;;;;;;;8.45;5.95;;;22.40;99.90;;;;;;4894681;29;20055;-68
2021/08/22 11:40:45;;;;;;;9.55;6.05;;;22.70;99.90;;;;;;4894861;29;20131;-68
2021/08/22 11:43:13;;;;;;;8.00;6.18;;;22.90;99.90;;;;;;4890261;29;20564;-66
2021/08/22 11:45:45;;;;;;;8.25;6.03;;;23.30;99.90;;;;;;4910314;29;20060;-67
2021/08/22 11:48:16;;;;;;;;;;;23.30;99.90;;;;;;4863304;29;20386;-66
2021/08/22 11:50:44;;;;;;;9.15;6.25;;;23.80;99.90;;;;;;4885184;29;19928;-66
2021/08/22 11:53:12;;;;;;;9.52;6.15;;;24.10;99.90;;;;;;4893437;29;20148;-66
2021/08/22 11:55:41;;;;;;;9.13;5.50;;;24.40;99.90;;;;;;4894837;29;20049;-66
2021/08/22 11:58:14;;;;;;;8.73;5.30;;;24.30;99.90;;;;;;4892855;29;20053;-67
2021/08/22 12:00:46;;;;;;;9.50;5.88;;;24.50;99.90;;;;;;4894384;29;20517;-67
2021/08/22 12:03:15;;;;;;;9.25;6.20;;;24.70;99.90;;;;;;4891296;29;20418;-67
2021/08/22 12:06:07;;;;;;;9.98;5.90;;;24.50;99.90;;;;;;4896176;29;20068;-67
2021/08/22 12:08:35;;;;;;;10.10;6.10;;;24.10;99.90;;;;;;4893248;29;20040;-67
2021/08/22 12:11:13;;;;;;;8.50;6.15;;;23.90;99.90;;;;;;4894056;29;20053;-66
2021/08/22 12:13:43;;;;;;;7.85;5.72;;;23.50;99.90;;;;;;4877933;29;20538;-68
2021/08/22 12:16:32;;;;;;;7.00;5.55;;;23.30;99.90;;;;;;4894135;29;20052;-67
2021/08/22 12:19:17;;;;;;;7.65;5.72;;;23.30;99.90;;;;;;4883995;29;20052;-67
2021/08/22 12:21:46;;;;;;;8.57;6.55;;;23.10;99.90;;;;;;4893055;29;20076;-66
2021/08/22 12:24:25;;;;;;;9.18;6.85;;;23.30;99.90;;;;;;4894431;29;20060;-66
2021/08/22 12:27:03;;;;;;;8.77;5.90;;;23.10;99.90;;;;;;4897013;29;20084;-66
2021/08/22 12:29:39;;;;;;;8.25;5.93;;;23.30;99.90;;;;;;4906118;29;20148;-66
2021/08/22 12:32:19;;;;;;;7.72;5.85;;;23.40;99.90;;;;;;4894551;29;20059;-66
2021/08/22 12:35:02;;;;;;;10.82;6.03;;;23.50;99.90;;;;;;4896738;29;20052;-66
2021/08/22 12:37:29;;;;;;;9.02;6.00;;;23.50;99.90;;;;;;4885156;29;20052;-66
2021/08/22 12:39:58;;;;;;;8.93;6.22;;;23.30;99.90;;;;;;4903083;29;20488;-66
2021/08/22 12:42:26;;;;;;;8.95;6.35;;;22.80;99.90;;;;;;4886205;29;20041;-68
2021/08/22 12:44:55;;;;;;;8.07;5.32;;;22.40;99.90;;;;;;4905769;29;20049;-67
2021/08/22 12:47:23;;;;;;;6.90;4.40;;;21.80;99.90;;;;;;4896998;29;20128;-66
2021/08/22 12:49:51;;;;;;;12.13;4.47;;;21.10;99.90;;;;;;4896059;29;20049;-71
2021/08/22 12:52:18;;;;;;;11.73;5.20;;;20.40;99.90;;;;;;4897024;29;20052;-72
2021/08/22 12:54:45;;;;;;;7.85;4.70;;;19.70;99.90;;;;;;4883006;29;20056;-70
2021/08/22 12:57:13;;;;;;;7.47;4.40;;;19.30;99.90;;;;;;4896412;29;20052;-70
2021/08/22 12:59:40;;;;;;;8.38;5.07;;;19.20;99.90;;;;;;4878142;29;20060;-69
2021/08/22 13:02:07;;;;;;;11.25;5.00;;;19.10;99.90;;;;;;4896498;29;20056;-70
2021/08/22 13:04:35;;;;;;;9.55;5.15;;;18.90;99.90;;;;;;4891502;29;20463;-68